Nellis Air Force Base
KLSV : now visible

Airfield :











YOU CAN JOIN US ON...

 
LOGIN :

Register | Disclaimer

   EN    FR    IT 

 









Legend :    VFR   Marginal VFR   IFR   Intensive IFR   Very Intensive IFR
Visi :
Ceiling :
>= 8 km
>= 3000ft
5 to 8 km
1000 to 3000 ft
1500m to 5 km
500 to 1000 ft
800 to 1500m
200 to 500 ft
< 800m
< 200 ft
Symbols :   Thunderstorms  Fog  Heavy snow  Heavy precipitations  Wind > 20 kt






- Airport Elevation : 1870 ft


KLSV - Nellis Air Force Base

EXPIRED METARs :
  • 180255Z AUTO 29016KT 10SM CLR 37/M09 A2942 RMK AO2 SLP933 T03681090 53007 $
  • 180155Z AUTO 30013KT 10SM CLR 38/M11 A2941 RMK AO2 SLP930 T03811110 $

TAF AMD TAF KLSV
Valid from the 18 at 04:00 until the 19 at 05:00 UTC


180425Z 1804/1905 21012KT 9999 FEW200 QNH2934INS
TEMPO 1723/1804 20015G25KT 520009
BECMG 1805/1806 35015G28KT 9999 SKC 520009 QNH2952INS
TEMPO 1806/1810 01020G35KT 530009
BECMG 1817/1818 06006KT 9999 FEW220 QNH2971INS
BECMG 1821/1822 15006KT 9999 FEW240 QNH2963INS TX38/1823Z TN19/1813Z
KZLA FIR / North America



MET'MAP, your aeronautical weather chart ! - Copyright ORBIFLY December 2007 - Disclaimer

ORBIFLY MET'MAP TEAM :

Programming & Development : Alexandra Zaïnal
Original concept : Baudouin d'Aumeries
Technical & hardware support : Manuel Goepfert
Assistance : Marc-Olivier Méhu




SOURCES & CREDITS :

   NOAA       Earth
Advisory